CYPQ

Peterborough Airport

Peterborough, , Canada
METAR CYPQ 190400Z AUTO 33004KT 270V340 9SM CLR 14/14 A2992 RMK SLP133
Observed Flight Rules
Sep-19 @ 04:00 UTC (an hour ago) Visual Flight Rules
Wind Visibility Clouds
330° at 4 knots 9 miles
  • Clear skies
Temperatures Readings
Current 14°C / 57°F
Dewpoint 14°C / 57°F
Humidity 100%
Altimeter 29.92" Hg
Pressure 1013.3 hPa
Elevation 191
METAR CYPQ 190400Z AUTO 33004KT 270V340 9SM CLR 14/14 A2992 RMK SLP133
Observed Flight Rules
Sep-19 @ 04:00 UTC
(an hour ago)
VFR
Wind Visibility
330° at 4 knots 9 miles
Clouds
  • Clear skies
Temperature Dewpoint
14°C / 57°F 14°C / 57°F
Humidity Altimeter Pressure
100% 29.92" Hg 1013.3 hPa